Weather observations for the past three days for
Hailey, Friedman Memorial Airport
Metric (Imperial)
Date Time (mdt) Wind (kph) Vis. (km) Weather Sky Cond. Temperature (ºC) Relative Humidity Wind Chill (°C) Heat Index (°C) Pressure Precipitation (cm)
Air Dwpt 6 hour altimeter (cm) sea level (mb) 1 hr 3 hr 6 hr
Max. Min.
07 15:47 SW 19 G 33 16.09 Fair CLR 23 -8 12% 76.07 0.0
07 14:47 W 15 16.09 Fair CLR 22 -7 14% 76.12 0.0
07 13:47 SW 19 G 33 16.09 Fair CLR 21 -5 17% 76.17 0.0
07 12:47 S 19 16.09 Mostly Cloudy BKN120 20 -4 20% 76.2 0.0
07 11:47 S 17 16.09 Mostly Cloudy BKN120 18 -4 22% 76.25 0.0
07 10:50 W 15 16.09 Mostly Cloudy BKN120 18 -4 22% 76.28 0.0
07 09:50 SE 15 16.09 Partly Cloudy SCT120 17 3 39% 76.3 0.0
07 08:50 NW 9 16.09 Mostly Cloudy BKN120 14 2 44% 76.33 0.0
07 07:50 NW 15 16.09 Mostly Cloudy BKN120 11 2 54% 76.33 0.0
07 06:52 NW 15 16.09 Mostly Cloudy BKN120 8 1 62% 6 76.33 0.0
07 06:35 NW 11 16.09 Fair CLR 0 0 0% 76.3 0.0
07 06:15 NW 11 16.09 Fair CLR 0 0 0% 76.33 0.0
07 05:55 NW 15 16.09 Fair CLR 0 0 0% 76.33 0.0
07 05:35 NW 15 16.09 Fair CLR 0 0 0% 76.33 0.0
07 05:15 NW 17 16.09 Fair CLR 0 0 0% 76.33 0.0
07 04:55 NW 15 16.09 Fair CLR 0 0 0% 76.33 0.0
07 04:35 NW 7 16.09 Fair CLR 0 0 0% 76.33 0.0
07 04:15 NW 11 16.09 Fair CLR 0 0 0% 76.33 0.0
07 03:55 NW 9 16.09 Fair CLR 0 0 0% 76.33 0.0
07 03:35 NW 15 16.09 Fair CLR 0 0 0% 76.33 0.0
07 03:15 NW 9 16.09 Fair CLR 0 0 0% 76.35 0.0
07 02:55 NW 7 16.09 Fair CLR 0 0 0% 76.35 0.0
07 02:35 NW 15 16.09 Fair CLR 0 0 0% 76.35 0.0
07 02:15 NW 11 16.09 Fair CLR 0 0 0% 76.35 0.0
07 01:55 NW 15 16.09 Fair CLR 0 0 0% 76.38 0.0
07 01:35 NW 13 16.09 Fair CLR 0 0 0% 76.38 0.0
07 01:15 NW 15 16.09 Fair CLR 0 0 0% 76.38 0.0
07 00:55 NW 11 16.09 Fair CLR 0 0 0% 76.35 0.0
07 00:35 NW 17 16.09 Fair CLR 0 0 0% 76.35 0.0
07 00:15 NW 15 16.09 Fair CLR 0 0 0% 76.35 0.0
06 23:55 NW 15 16.09 Fair CLR 0 0 0% 76.35 0.0
06 23:35 NW 13 16.09 Fair CLR 0 0 0% 76.35 0.0
06 23:15 N 7 16.09 Fair CLR 0 0 0% 76.38 0.0
06 21:50 NW 19 16.09 Fair CLR 17 -2 27% 76.38 0.0
06 20:50 NW 22 G 37 16.09 Fair CLR 18 -2 26% 76.3 0.0
06 19:47 NW 19 16.09 Fair CLR 19 -2 24% 76.28 0.0
06 18:47 NW 15 16.09 Fair CLR 21 -3 20% 76.25 0.0
06 17:47 NW 7 16.09 Fair CLR 21 -1 23% 76.25 0.0
06 16:47 SE 19 G 37 16.09 Partly Cloudy SCT100 21 0 25% 76.33 0.0
06 15:47 SW 19 16.09 Mostly Cloudy BKN100 18 -1 28% 76.4 0.0
06 14:47 SE 19 G 33 16.09 Partly Cloudy SCT095 18 -1 28% 76.45 0.0
06 13:47 SE 15 G 33 16.09 Partly Cloudy SCT085 17 -1 30% 76.5 0.0
06 12:47 SE 19 16.09 Fair CLR 14 -3 31% 76.58 0.0
06 11:47 SE 15 G 24 16.09 Fair CLR 12 -4 33% 76.61 0.0
06 10:47 E 15 G 24 16.09 A Few Clouds FEW070 9 -4 40% 7 76.61 0.0
06 09:50 SE 19 16.09 Fair CLR 8 -5 40% 5 76.63 0.0
06 08:50 SE 19 16.09 Fair CLR 4 -4 56% 0 76.63 0.0
06 07:50 Calm 16.09 Fair CLR 3 -4 60% 76.58 0.0
06 06:55 NW 9 16.09 Fair CLR 0 -4 75% -3 76.5 0.0
06 06:35 Calm 16.09 Fair CLR 0 0 0% 76.48 0.0
06 06:15 Calm 16.09 Fair CLR 0 0 0% 76.45 0.0
06 05:55 Calm 16.09 Fair CLR 0 0 0% 76.45 0.0
06 05:35 Calm 16.09 Fair CLR 0 0 0% 76.43 0.0
06 05:15 S 7 16.09 Fair CLR 0 0 0% 76.4 0.0
06 04:55 SE 6 16.09 Fair CLR 0 0 0% 76.4 0.0
06 04:35 Calm 16.09 Fair CLR 0 0 0% 76.38 0.0
06 04:15 N 15 16.09 Fair CLR 0 0 0% 76.35 0.0
06 03:55 N 17 16.09 Partly Cloudy SCT085 0 0 0% 76.35 0.0
06 03:35 NW 11 16.09 Overcast OVC085 0 0 0% 76.35 0.0
06 03:15 NW 11 16.09 Mostly Cloudy BKN085 0 0 0% 76.35 0.0
06 02:55 Calm 16.09 Partly Cloudy SCT085 0 0 0% 76.33 0.0
06 02:35 Calm 16.09 Mostly Cloudy BKN085 0 0 0% 76.3 0.0
06 02:15 N 7 16.09 Overcast OVC085 0 0 0% 76.3 0.0
06 01:55 NW 6 16.09 Partly Cloudy SCT085 0 0 0% 76.28 0.0
06 01:35 Calm 16.09 Fair CLR 0 0 0% 76.25 0.0
06 01:15 S 6 16.09 Fair CLR 0 0 0% 76.23 0.0
06 00:55 Calm 16.09 Fair CLR 0 0 0% 76.2 0.0
06 00:35 N 7 16.09 Fair CLR 0 0 0% 76.17 0.0
06 00:15 Calm 16.09 Fair CLR 0 0 0% 76.12 0.0
05 23:55 SE 9 16.09 Fair CLR 0 0 0% 76.1 0.0
05 23:35 SE 13 16.09 Fair CLR 0 0 0% 76.07 0.0
05 23:15 S 6 16.09 Fair CLR 0 0 0% 76.05 0.0
05 21:50 NW 7 16.09 Fair CLR 10 1 54% 9 75.97 0.0
05 20:50 S 11 16.09 Fair CLR 13 3 51% 75.87 0.0
05 19:50 SE 19 16.09 Fair CLR 16 1 36% 75.74 0.0
05 18:50 SE 19 16.09 Partly Cloudy SCT100 17 2 37% 75.72 0.0
05 17:50 S 15 16.09 Partly Cloudy SCT100 20 -2 23% 75.69 0.0
05 16:50 SW 19 G 28 16.09 Partly Cloudy SCT100 19 2 32% 75.72 0.0
05 15:50 SW 15 G 28 16.09 Partly Cloudy SCT100 19 2 32% 75.77 0.0
05 14:50 SW 19 G 31 16.09 A Few Clouds FEW070 20 2 30% 75.82 0.0
05 13:50 SW 19 16.09 A Few Clouds FEW080 19 1 30% 75.87 0.0
05 12:50 S 15 16.09 A Few Clouds FEW070 17 1 34% 75.9 0.0
05 11:50 SE 19 16.09 A Few Clouds FEW050 16 1 36% 75.92 0.0
05 10:50 SE 19 16.09 A Few Clouds FEW050 14 0 39% 75.92 0.0
05 09:50 SE 19 16.09 Mostly Cloudy BKN 12 0 44% 75.92 0.0
05 08:50 SE 13 16.09 Mostly Cloudy BKN 11 0 47% 75.9 0.0
05 07:50 SE 11 16.09 Mostly Cloudy BKN 11 0 47% 75.9 0.0
05 06:50 W 11 16.09 Mostly Cloudy BKN090 BKN110 9 1 58% 8 75.82 0.0
05 06:35 NW 7 16.09 Overcast SCT060 OVC100 0 0 0% 75.79 0.0
05 06:15 NW 7 16.09 Light Rain SCT060 BKN080 OVC100 0 0 0% 75.79 0.0
05 05:55 NW 9 16.09 Overcast OVC080 0 0 0% 75.79 0.0
05 05:35 N 7 16.09 Overcast OVC090 0 0 0% 75.79 0.0
05 05:15 Calm 16.09 Overcast OVC100 0 0 0% 75.77 0.0
05 04:55 Calm 16.09 Overcast OVC100 0 0 0% 75.77 0.0
05 04:35 N 7 16.09 Mostly Cloudy BKN100 0 0 0% 75.74 0.0
05 04:15 N 6 16.09 Fair CLR 0 0 0% 75.74 0.0
05 03:55 NW 6 16.09 Fair CLR 0 0 0% 75.74 0.0
05 03:35 NW 9 16.09 Fair CLR 0 0 0% 75.74 0.0
05 03:15 Calm 16.09 Fair CLR 0 0 0% 75.74 0.0
05 02:55 NW 9 16.09 Partly Cloudy SCT095 0 0 0% 75.74 0.0
05 02:35 NW 13 16.09 Mostly Cloudy BKN095 0 0 0% 75.74 0.0
05 02:15 NW 9 16.09 Overcast OVC095 0 0 0% 75.77 0.0
05 01:55 Calm 16.09 Partly Cloudy SCT095 SCT120 0 0 0% 75.77 0.0
05 01:35 NW 9 16.09 Partly Cloudy SCT095 0 0 0% 75.77 0.0
05 01:15 NW 13 16.09 Partly Cloudy SCT095 0 0 0% 75.74 0.0
05 00:55 N 7 16.09 Fair CLR 0 0 0% 75.74 0.0
05 00:35 NW 15 16.09 Partly Cloudy SCT095 0 0 0% 75.72 0.0
05 00:15 N 7 16.09 Partly Cloudy SCT095 0 0 0% 75.72 0.0
04 23:55 W 9 16.09 Fair CLR 0 0 0% 75.69 0.0
04 23:35 NW 9 16.09 Fair CLR 0 0 0% 75.69 0.0
04 23:15 NW 6 16.09 Partly Cloudy SCT110 0 0 0% 75.69 0.0
04 21:47 N 7 16.09 Mostly Cloudy BKN110 15 2 42% 75.64 0.0
04 20:47 NW 7 16.09 Partly Cloudy SCT110 17 1 34% 75.59 0.0
04 19:47 S 7 16.09 Fair CLR 19 -1 26% 75.57 0.0
04 18:47 S 11 16.09 Fair CLR 20 -1 24% 75.59 0.0
04 17:47 E 19 16.09 Overcast BKN100 OVC120 19 -1 26% 75.59 0.0
04 16:47 SW 11 16.09 Partly Cloudy SCT100 23 -3 17% 75.59 0.0
Date Time (mdt) Wind (kph) Vis. (km) Weather Sky Cond. Air Dwpt Max. Min. Relative Humidity Wind Chill (°C) Heat Index (°C) altimeter (cm) sea level (mb) 1 hr 3 hr 6 hr
6 hour
Temperature (ºC) Pressure Precipitation (cm)